sensor_id;sensor_type;location;lat;lon;timestamp;pressure;altitude;pressure_sealevel;temperature;humidity
33151;BME280;19508;42.578;23.416;2022-08-21T06:17:24;93133.06;;;22.81;74.89
33151;BME280;19508;42.578;23.416;2022-08-21T06:19:54;93143.59;;;23.04;72.25
33151;BME280;19508;42.578;23.416;2022-08-21T06:22:21;93139.03;;;23.36;71.52
33151;BME280;19508;42.578;23.416;2022-08-21T06:24:47;93140.41;;;23.58;68.75
33151;BME280;19508;42.578;23.416;2022-08-21T06:27:13;93130.75;;;23.76;68.87
33151;BME280;19508;42.578;23.416;2022-08-21T06:29:45;93131.53;;;23.92;67.94
33151;BME280;19508;42.578;23.416;2022-08-21T06:32:12;93139.00;;;24.08;65.05
33151;BME280;19508;42.578;23.416;2022-08-21T06:34:44;93136.53;;;24.03;65.68
33151;BME280;19508;42.578;23.416;2022-08-21T06:37:20;93138.56;;;24.06;67.43
33151;BME280;19508;42.578;23.416;2022-08-21T06:39:47;93150.38;;;24.54;68.65
33151;BME280;19508;42.578;23.416;2022-08-21T06:42:15;93146.56;;;24.93;66.38
33151;BME280;19508;42.578;23.416;2022-08-21T06:44:41;93162.28;;;24.93;65.94
33151;BME280;19508;42.578;23.416;2022-08-21T06:47:06;93160.63;;;25.23;63.57
33151;BME280;19508;42.578;23.416;2022-08-21T06:49:32;93150.31;;;25.20;62.20
33151;BME280;19508;42.578;23.416;2022-08-21T06:51:57;93158.38;;;25.29;63.85
33151;BME280;19508;42.578;23.416;2022-08-21T06:54:23;93148.66;;;25.16;62.26
33151;BME280;19508;42.578;23.416;2022-08-21T06:56:48;93166.84;;;25.20;62.39
33151;BME280;19508;42.578;23.416;2022-08-21T06:59:14;93169.53;;;25.17;62.22
33151;BME280;19508;42.578;23.416;2022-08-21T07:01:39;93159.44;;;24.70;61.30
33151;BME280;19508;42.578;23.416;2022-08-21T07:04:05;93160.94;;;24.52;64.47
33151;BME280;19508;42.578;23.416;2022-08-21T07:06:30;93167.31;;;24.24;64.95
33151;BME280;19508;42.578;23.416;2022-08-21T07:08:56;93160.81;;;24.01;64.84
33151;BME280;19508;42.578;23.416;2022-08-21T07:11:23;93164.31;;;24.29;65.25
33151;BME280;19508;42.578;23.416;2022-08-21T07:13:50;93174.63;;;24.32;63.47
33151;BME280;19508;42.578;23.416;2022-08-21T07:16:18;93154.56;;;24.47;64.21
33151;BME280;19508;42.578;23.416;2022-08-21T07:18:43;93151.88;;;24.67;63.32
33151;BME280;19508;42.578;23.416;2022-08-21T07:21:10;93154.22;;;24.84;63.23
33151;BME280;19508;42.578;23.416;2022-08-21T07:23:44;93153.00;;;25.17;63.98
33151;BME280;19508;42.578;23.416;2022-08-21T07:26:13;93149.34;;;24.77;65.09
33151;BME280;19508;42.578;23.416;2022-08-21T07:28:45;93155.28;;;24.95;62.64
33151;BME280;19508;42.578;23.416;2022-08-21T07:31:13;93148.16;;;24.94;62.07
33151;BME280;19508;42.578;23.416;2022-08-21T07:33:41;93137.59;;;24.96;64.55
33151;BME280;19508;42.578;23.416;2022-08-21T07:36:13;93134.69;;;24.89;63.84
33151;BME280;19508;42.578;23.416;2022-08-21T07:38:57;93131.34;;;24.80;62.78
33151;BME280;19508;42.578;23.416;2022-08-21T07:41:25;93124.06;;;24.72;62.65
33151;BME280;19508;42.578;23.416;2022-08-21T07:43:52;93134.31;;;24.56;64.51
33151;BME280;19508;42.578;23.416;2022-08-21T07:46:17;93137.31;;;24.51;64.25
33151;BME280;19508;42.578;23.416;2022-08-21T07:48:43;93122.09;;;24.37;64.86
33151;BME280;19508;42.578;23.416;2022-08-21T07:51:11;93124.13;;;24.40;64.43
33151;BME280;19508;42.578;23.416;2022-08-21T07:53:38;93133.44;;;24.20;65.09
33151;BME280;19508;42.578;23.416;2022-08-21T07:56:05;93133.16;;;24.25;65.22
33151;BME280;19508;42.578;23.416;2022-08-21T07:58:31;93133.06;;;24.22;64.03
33151;BME280;19508;42.578;23.416;2022-08-21T08:00:59;93123.41;;;24.12;64.98
33151;BME280;19508;42.578;23.416;2022-08-21T08:03:25;93130.38;;;24.25;63.86
33151;BME280;19508;42.578;23.416;2022-08-21T08:05:51;93133.59;;;24.11;63.12
33151;BME280;19508;42.578;23.416;2022-08-21T08:08:19;93130.22;;;24.02;62.86
33151;BME280;19508;42.578;23.416;2022-08-21T08:10:45;93131.97;;;23.79;63.85
33151;BME280;19508;42.578;23.416;2022-08-21T08:13:20;93139.28;;;24.03;63.50
33151;BME280;19508;42.578;23.416;2022-08-21T08:15:47;93142.03;;;24.03;63.51
33151;BME280;19508;42.578;23.416;2022-08-21T08:18:13;93141.13;;;23.99;64.12
33151;BME280;19508;42.578;23.416;2022-08-21T08:20:41;93140.06;;;23.87;63.62
33151;BME280;19508;42.578;23.416;2022-08-21T08:23:12;93141.34;;;24.37;62.06
33151;BME280;19508;42.578;23.416;2022-08-21T08:25:39;93148.06;;;24.71;63.49
33151;BME280;19508;42.578;23.416;2022-08-21T08:28:05;93158.69;;;24.73;63.98
33151;BME280;19508;42.578;23.416;2022-08-21T08:30:31;93148.34;;;24.51;62.91
33151;BME280;19508;42.578;23.416;2022-08-21T08:32:57;93165.31;;;24.37;61.53
33151;BME280;19508;42.578;23.416;2022-08-21T08:35:23;93170.25;;;24.63;62.82
33151;BME280;19508;42.578;23.416;2022-08-21T08:38:19;93162.72;;;24.28;63.57
33151;BME280;19508;42.578;23.416;2022-08-21T08:41:08;93156.25;;;24.36;63.59
33151;BME280;19508;42.578;23.416;2022-08-21T08:43:37;93148.50;;;24.58;61.99
33151;BME280;19508;42.578;23.416;2022-08-21T08:46:06;93139.53;;;24.61;61.30
33151;BME280;19508;42.578;23.416;2022-08-21T08:48:41;93144.66;;;24.78;61.04
33151;BME280;19508;42.578;23.416;2022-08-21T08:51:16;93148.47;;;24.89;62.63
33151;BME280;19508;42.578;23.416;2022-08-21T08:53:56;93139.34;;;24.69;60.92
33151;BME280;19508;42.578;23.416;2022-08-21T08:56:53;93136.28;;;24.55;62.39
33151;BME280;19508;42.578;23.416;2022-08-21T08:59:29;93129.69;;;24.60;62.33
33151;BME280;19508;42.578;23.416;2022-08-21T09:01:57;93138.06;;;24.83;62.03
33151;BME280;19508;42.578;23.416;2022-08-21T09:04:25;93129.34;;;24.96;62.32
33151;BME280;19508;42.578;23.416;2022-08-21T09:07:56;93126.84;;;25.07;62.48
33151;BME280;19508;42.578;23.416;2022-08-21T09:10:20;93138.22;;;25.06;61.92
33151;BME280;19508;42.578;23.416;2022-08-21T09:16:01;93126.47;;;25.09;61.28
33151;BME280;19508;42.578;23.416;2022-08-21T09:19:09;93132.00;;;25.09;63.04
33151;BME280;19508;42.578;23.416;2022-08-21T09:27:53;93120.25;;;25.12;62.22
33151;BME280;19508;42.578;23.416;2022-08-21T09:30:24;93129.34;;;25.31;62.06
33151;BME280;19508;42.578;23.416;2022-08-21T09:32:50;93125.63;;;25.05;61.89
33151;BME280;19508;42.578;23.416;2022-08-21T09:35:19;93119.53;;;25.15;61.01
33151;BME280;19508;42.578;23.416;2022-08-21T09:40:35;93119.03;;;24.93;60.83
33151;BME280;19508;42.578;23.416;2022-08-21T09:45:39;93126.47;;;24.73;60.31
33151;BME280;19508;42.578;23.416;2022-08-21T09:48:19;93131.59;;;24.75;60.70
33151;BME280;19508;42.578;23.416;2022-08-21T09:50:50;93135.47;;;24.55;61.31
33151;BME280;19508;42.578;23.416;2022-08-21T09:53:21;93121.44;;;24.44;61.54
33151;BME280;19508;42.578;23.416;2022-08-21T09:56:01;93119.94;;;24.31;61.42
33151;BME280;19508;42.578;23.416;2022-08-21T09:58:48;93112.72;;;24.26;62.74
33151;BME280;19508;42.578;23.416;2022-08-21T10:01:19;93114.00;;;24.29;63.11
33151;BME280;19508;42.578;23.416;2022-08-21T10:03:45;93106.03;;;24.39;62.42
33151;BME280;19508;42.578;23.416;2022-08-21T10:06:24;93102.09;;;24.25;63.64
33151;BME280;19508;42.578;23.416;2022-08-21T10:09:21;93108.94;;;24.46;63.61
33151;BME280;19508;42.578;23.416;2022-08-21T10:12:21;93108.75;;;24.55;63.06
33151;BME280;19508;42.578;23.416;2022-08-21T10:15:07;93118.22;;;24.58;64.31
33151;BME280;19508;42.578;23.416;2022-08-21T10:34:48;93096.63;;;25.30;59.63
33151;BME280;19508;42.578;23.416;2022-08-21T10:39:52;93084.38;;;25.89;58.25
33151;BME280;19508;42.578;23.416;2022-08-21T10:48:58;93061.47;;;26.84;54.07
33151;BME280;19508;42.578;23.416;2022-08-21T10:54:38;93054.78;;;27.48;51.27
33151;BME280;19508;42.578;23.416;2022-08-21T11:01:08;93041.53;;;28.50;50.98
33151;BME280;19508;42.578;23.416;2022-08-21T11:11:52;93036.91;;;29.41;44.29
33151;BME280;19508;42.578;23.416;2022-08-21T11:17:49;93034.88;;;29.24;45.31
33151;BME280;19508;42.578;23.416;2022-08-21T11:20:28;93014.56;;;28.98;46.51
33151;BME280;19508;42.578;23.416;2022-08-21T11:27:15;93024.38;;;28.88;48.92
33151;BME280;19508;42.578;23.416;2022-08-21T11:33:44;93031.75;;;28.70;48.27
33151;BME280;19508;42.578;23.416;2022-08-21T11:36:22;93030.50;;;28.57;50.80
33151;BME280;19508;42.578;23.416;2022-08-21T11:41:30;93015.63;;;28.24;49.41
33151;BME280;19508;42.578;23.416;2022-08-21T11:56:37;93015.78;;;27.20;52.82
33151;BME280;19508;42.578;23.416;2022-08-21T11:59:11;93001.28;;;27.00;53.20
33151;BME280;19508;42.578;23.416;2022-08-21T12:01:43;93005.59;;;26.97;53.21
33151;BME280;19508;42.578;23.416;2022-08-21T12:04:42;92996.28;;;26.76;53.55
33151;BME280;19508;42.578;23.416;2022-08-21T12:10:06;93015.59;;;26.76;53.72
33151;BME280;19508;42.578;23.416;2022-08-21T12:12:35;93007.38;;;26.53;55.18
33151;BME280;19508;42.578;23.416;2022-08-21T12:15:49;93000.66;;;26.50;54.94
33151;BME280;19508;42.578;23.416;2022-08-21T12:18:31;93018.69;;;26.44;55.75
33151;BME280;19508;42.578;23.416;2022-08-21T12:26:48;93014.75;;;25.96;58.87
33151;BME280;19508;42.578;23.416;2022-08-21T12:29:27;93018.09;;;25.82;58.93
33151;BME280;19508;42.578;23.416;2022-08-21T12:31:59;93011.78;;;25.81;58.82
33151;BME280;19508;42.578;23.416;2022-08-21T12:34:40;93024.44;;;25.86;60.23
33151;BME280;19508;42.578;23.416;2022-08-21T12:37:50;93020.53;;;25.87;59.57
33151;BME280;19508;42.578;23.416;2022-08-21T12:40:28;93028.63;;;25.76;59.21
33151;BME280;19508;42.578;23.416;2022-08-21T12:42:57;93030.63;;;25.56;59.26
33151;BME280;19508;42.578;23.416;2022-08-21T12:45:43;93017.22;;;25.36;60.03
33151;BME280;19508;42.578;23.416;2022-08-21T12:48:29;93025.72;;;25.27;61.47
33151;BME280;19508;42.578;23.416;2022-08-21T12:51:29;93012.41;;;25.10;62.17
33151;BME280;19508;42.578;23.416;2022-08-21T12:53:59;93001.94;;;24.99;62.58
33151;BME280;19508;42.578;23.416;2022-08-21T12:56:32;92994.06;;;24.98;62.82
33151;BME280;19508;42.578;23.416;2022-08-21T12:59:04;92996.44;;;24.99;63.09
33151;BME280;19508;42.578;23.416;2022-08-21T13:01:34;92997.88;;;24.93;62.93
33151;BME280;19508;42.578;23.416;2022-08-21T13:04:12;92987.88;;;24.85;62.77
33151;BME280;19508;42.578;23.416;2022-08-21T13:06:46;92986.72;;;24.86;63.39
33151;BME280;19508;42.578;23.416;2022-08-21T13:09:18;93003.03;;;24.75;63.99
33151;BME280;19508;42.578;23.416;2022-08-21T13:11:47;92984.72;;;24.64;64.37
33151;BME280;19508;42.578;23.416;2022-08-21T13:14:33;93007.44;;;24.61;65.62
33151;BME280;19508;42.578;23.416;2022-08-21T13:17:03;93000.84;;;24.46;66.48
33151;BME280;19508;42.578;23.416;2022-08-21T13:19:29;92991.44;;;24.31;68.31
33151;BME280;19508;42.578;23.416;2022-08-21T13:21:56;93000.84;;;24.30;68.95
33151;BME280;19508;42.578;23.416;2022-08-21T13:24:23;93002.28;;;24.24;69.76
33151;BME280;19508;42.578;23.416;2022-08-21T13:26:49;92993.56;;;24.03;69.50
33151;BME280;19508;42.578;23.416;2022-08-21T13:29:20;93004.63;;;24.06;69.76
33151;BME280;19508;42.578;23.416;2022-08-21T13:32:01;93003.84;;;24.06;70.32
33151;BME280;19508;42.578;23.416;2022-08-21T13:34:35;92994.63;;;23.82;71.27
33151;BME280;19508;42.578;23.416;2022-08-21T13:37:06;92981.53;;;23.60;72.79
33151;BME280;19508;42.578;23.416;2022-08-21T13:39:33;92974.13;;;23.48;72.75
33151;BME280;19508;42.578;23.416;2022-08-21T13:42:03;92972.28;;;23.52;72.57
33151;BME280;19508;42.578;23.416;2022-08-21T13:44:47;92982.66;;;23.59;74.23
33151;BME280;19508;42.578;23.416;2022-08-21T13:47:16;92970.75;;;23.39;74.50
33151;BME280;19508;42.578;23.416;2022-08-21T13:53:03;92968.56;;;23.45;76.10
33151;BME280;19508;42.578;23.416;2022-08-21T13:55:42;92980.34;;;23.29;76.95
33151;BME280;19508;42.578;23.416;2022-08-21T14:01:03;92977.03;;;23.08;77.69
33151;BME280;19508;42.578;23.416;2022-08-21T14:03:45;92981.72;;;23.23;77.69
33151;BME280;19508;42.578;23.416;2022-08-21T14:06:22;92976.88;;;23.17;78.40
33151;BME280;19508;42.578;23.416;2022-08-21T14:09:07;92973.34;;;23.16;77.82
33151;BME280;19508;42.578;23.416;2022-08-21T14:11:38;92957.28;;;23.02;78.03
33151;BME280;19508;42.578;23.416;2022-08-21T14:14:25;92968.25;;;23.02;77.30
33151;BME280;19508;42.578;23.416;2022-08-21T14:17:04;92961.06;;;22.98;77.60
33151;BME280;19508;42.578;23.416;2022-08-21T14:19:41;92946.47;;;22.94;77.64
33151;BME280;19508;42.578;23.416;2022-08-21T14:22:30;92957.53;;;23.13;77.79
33151;BME280;19508;42.578;23.416;2022-08-21T14:30:41;92955.00;;;23.20;78.66
33151;BME280;19508;42.578;23.416;2022-08-21T14:33:10;92948.53;;;23.28;78.76
33151;BME280;19508;42.578;23.416;2022-08-21T14:35:37;92952.81;;;23.42;78.05
33151;BME280;19508;42.578;23.416;2022-08-21T14:38:12;92966.34;;;23.66;77.47
33151;BME280;19508;42.578;23.416;2022-08-21T14:40:38;92963.78;;;23.73;76.81
33151;BME280;19508;42.578;23.416;2022-08-21T14:43:04;92956.06;;;23.79;76.20
33151;BME280;19508;42.578;23.416;2022-08-21T14:45:33;92952.16;;;23.80;73.86
33151;BME280;19508;42.578;23.416;2022-08-21T14:47:59;92962.59;;;23.90;72.84
33151;BME280;19508;42.578;23.416;2022-08-21T14:50:25;92955.94;;;23.91;72.92
33151;BME280;19508;42.578;23.416;2022-08-21T14:52:51;92958.31;;;24.08;72.98
33151;BME280;19508;42.578;23.416;2022-08-21T14:55:18;92950.59;;;24.14;73.06
33151;BME280;19508;42.578;23.416;2022-08-21T14:57:48;92955.97;;;24.26;72.53
33151;BME280;19508;42.578;23.416;2022-08-21T15:00:18;92948.88;;;24.25;72.35
33151;BME280;19508;42.578;23.416;2022-08-21T15:02:46;92949.00;;;24.13;72.52
33151;BME280;19508;42.578;23.416;2022-08-21T15:05:12;92942.28;;;24.10;73.15
33151;BME280;19508;42.578;23.416;2022-08-21T15:07:38;92933.78;;;24.00;73.48
33151;BME280;19508;42.578;23.416;2022-08-21T15:10:05;92937.78;;;24.02;73.36
33151;BME280;19508;42.578;23.416;2022-08-21T15:12:31;92923.50;;;23.97;73.63
33151;BME280;19508;42.578;23.416;2022-08-21T15:14:57;92932.19;;;23.99;73.08
33151;BME280;19508;42.578;23.416;2022-08-21T15:17:23;92912.06;;;23.95;72.93
33151;BME280;19508;42.578;23.416;2022-08-21T15:19:48;92904.63;;;23.95;73.29
33151;BME280;19508;42.578;23.416;2022-08-21T15:22:14;92909.47;;;24.02;74.90
33151;BME280;19508;42.578;23.416;2022-08-21T15:24:41;92900.63;;;23.92;74.34
33151;BME280;19508;42.578;23.416;2022-08-21T15:27:08;92900.47;;;23.85;75.34
33151;BME280;19508;42.578;23.416;2022-08-21T15:29:34;92895.84;;;23.89;74.76
33151;BME280;19508;42.578;23.416;2022-08-21T15:32:14;92904.88;;;23.90;74.49
33151;BME280;19508;42.578;23.416;2022-08-21T15:34:41;92912.50;;;23.97;74.56
33151;BME280;19508;42.578;23.416;2022-08-21T15:37:07;92906.72;;;24.02;74.67
33151;BME280;19508;42.578;23.416;2022-08-21T15:39:35;92890.94;;;23.99;74.84
33151;BME280;19508;42.578;23.416;2022-08-21T15:42:02;92900.31;;;24.13;74.81
33151;BME280;19508;42.578;23.416;2022-08-21T15:44:28;92887.72;;;24.12;75.25
33151;BME280;19508;42.578;23.416;2022-08-21T15:47:00;92889.16;;;24.06;74.72
33151;BME280;19508;42.578;23.416;2022-08-21T15:49:25;92877.94;;;23.96;74.50
33151;BME280;19508;42.578;23.416;2022-08-21T15:51:51;92880.69;;;23.96;75.14
33151;BME280;19508;42.578;23.416;2022-08-21T15:54:17;92875.44;;;23.90;75.24
33151;BME280;19508;42.578;23.416;2022-08-21T15:56:46;92874.59;;;23.86;74.38
33151;BME280;19508;42.578;23.416;2022-08-21T15:59:18;92879.91;;;23.79;74.27
33151;BME280;19508;42.578;23.416;2022-08-21T16:01:48;92880.66;;;23.76;74.27
33151;BME280;19508;42.578;23.416;2022-08-21T16:04:22;92879.66;;;23.84;74.05
33151;BME280;19508;42.578;23.416;2022-08-21T16:06:48;92879.13;;;23.79;74.23
33151;BME280;19508;42.578;23.416;2022-08-21T16:09:17;92887.16;;;23.87;74.55
33151;BME280;19508;42.578;23.416;2022-08-21T16:11:43;92893.09;;;23.89;73.68
33151;BME280;19508;42.578;23.416;2022-08-21T16:14:12;92884.69;;;23.82;72.96
33151;BME280;19508;42.578;23.416;2022-08-21T16:16:39;92894.53;;;23.83;73.51
33151;BME280;19508;42.578;23.416;2022-08-21T16:19:05;92902.78;;;23.83;71.88
33151;BME280;19508;42.578;23.416;2022-08-21T16:21:34;92908.38;;;23.87;72.35
33151;BME280;19508;42.578;23.416;2022-08-21T16:24:00;92919.44;;;23.90;71.69
33151;BME280;19508;42.578;23.416;2022-08-21T16:26:26;92926.50;;;23.91;71.37
33151;BME280;19508;42.578;23.416;2022-08-21T16:28:55;92925.84;;;23.79;71.53
33151;BME280;19508;42.578;23.416;2022-08-21T16:31:23;92937.50;;;23.91;71.57
33151;BME280;19508;42.578;23.416;2022-08-21T16:33:52;92935.75;;;23.83;71.74
33151;BME280;19508;42.578;23.416;2022-08-21T16:36:19;92941.97;;;23.80;72.12
33151;BME280;19508;42.578;23.416;2022-08-21T16:38:46;92944.59;;;23.92;72.08
33151;BME280;19508;42.578;23.416;2022-08-21T16:41:15;92941.34;;;23.87;72.09
33151;BME280;19508;42.578;23.416;2022-08-21T16:43:42;92935.41;;;23.85;72.07
33151;BME280;19508;42.578;23.416;2022-08-21T16:46:10;92941.41;;;23.90;72.34
33151;BME280;19508;42.578;23.416;2022-08-21T16:48:37;92922.38;;;23.82;72.61
33151;BME280;19508;42.578;23.416;2022-08-21T16:51:05;92929.38;;;23.79;72.68
33151;BME280;19508;42.578;23.416;2022-08-21T16:53:30;92940.22;;;23.72;72.75
33151;BME280;19508;42.578;23.416;2022-08-21T16:55:57;92944.13;;;23.71;72.87
33151;BME280;19508;42.578;23.416;2022-08-21T16:58:34;92955.00;;;23.83;73.13
33151;BME280;19508;42.578;23.416;2022-08-21T17:01:04;92945.72;;;23.72;73.72
33151;BME280;19508;42.578;23.416;2022-08-21T17:03:34;92954.84;;;23.60;74.01
33151;BME280;19508;42.578;23.416;2022-08-21T17:06:01;92946.59;;;23.45;74.41
33151;BME280;19508;42.578;23.416;2022-08-21T17:08:27;92960.69;;;23.43;74.81
33151;BME280;19508;42.578;23.416;2022-08-21T17:10:54;92955.72;;;23.33;75.16
33151;BME280;19508;42.578;23.416;2022-08-21T17:13:20;92961.72;;;23.23;75.75
33151;BME280;19508;42.578;23.416;2022-08-21T17:15:46;92965.78;;;23.13;75.77
33151;BME280;19508;42.578;23.416;2022-08-21T17:18:15;92973.22;;;23.13;75.89
33151;BME280;19508;42.578;23.416;2022-08-21T17:20:41;92973.81;;;23.06;76.01
33151;BME280;19508;42.578;23.416;2022-08-21T17:23:07;92979.16;;;22.99;76.32
33151;BME280;19508;42.578;23.416;2022-08-21T17:25:36;92981.03;;;22.83;75.99
33151;BME280;19508;42.578;23.416;2022-08-21T17:28:04;92998.16;;;22.79;76.15
33151;BME280;19508;42.578;23.416;2022-08-21T17:30:30;93009.38;;;22.87;75.98
33151;BME280;19508;42.578;23.416;2022-08-21T17:32:58;93010.84;;;22.84;76.30
33151;BME280;19508;42.578;23.416;2022-08-21T17:35:24;93004.81;;;22.78;76.37
33151;BME280;19508;42.578;23.416;2022-08-21T17:37:50;93012.16;;;22.74;76.25
33151;BME280;19508;42.578;23.416;2022-08-21T17:40:18;93009.84;;;22.76;76.29
33151;BME280;19508;42.578;23.416;2022-08-21T17:42:46;93006.47;;;22.67;76.91
33151;BME280;19508;42.578;23.416;2022-08-21T17:45:17;93014.13;;;22.62;77.44
33151;BME280;19508;42.578;23.416;2022-08-21T17:47:43;93023.94;;;22.75;76.69
33151;BME280;19508;42.578;23.416;2022-08-21T17:50:11;93028.06;;;22.69;76.73
33151;BME280;19508;42.578;23.416;2022-08-21T17:52:37;93019.72;;;22.65;76.94
33151;BME280;19508;42.578;23.416;2022-08-21T17:55:03;93032.09;;;22.59;77.23
33151;BME280;19508;42.578;23.416;2022-08-21T17:57:31;93035.53;;;22.56;77.56
33151;BME280;19508;42.578;23.416;2022-08-21T17:59:59;93029.13;;;22.52;77.42
33151;BME280;19508;42.578;23.416;2022-08-21T18:02:25;93034.66;;;22.40;77.49
33151;BME280;19508;42.578;23.416;2022-08-21T18:04:51;93041.50;;;22.34;78.13
33151;BME280;19508;42.578;23.416;2022-08-21T18:07:17;93049.63;;;22.42;77.77
33151;BME280;19508;42.578;23.416;2022-08-21T18:09:43;93041.97;;;22.36;78.07
33151;BME280;19508;42.578;23.416;2022-08-21T18:12:09;93045.41;;;22.33;77.86
33151;BME280;19508;42.578;23.416;2022-08-21T18:14:36;93045.75;;;22.31;78.26
33151;BME280;19508;42.578;23.416;2022-08-21T18:17:06;93048.28;;;22.24;78.69
33151;BME280;19508;42.578;23.416;2022-08-21T18:19:33;93048.03;;;22.29;78.46
33151;BME280;19508;42.578;23.416;2022-08-21T18:21:59;93050.75;;;22.29;78.43
33151;BME280;19508;42.578;23.416;2022-08-21T18:24:25;93042.88;;;22.28;78.58
33151;BME280;19508;42.578;23.416;2022-08-21T18:26:51;93040.16;;;22.28;78.28
33151;BME280;19508;42.578;23.416;2022-08-21T18:29:19;93044.28;;;22.09;79.27
33151;BME280;19508;42.578;23.416;2022-08-21T18:31:47;93041.50;;;22.21;78.87
33151;BME280;19508;42.578;23.416;2022-08-21T18:34:39;93036.97;;;22.13;79.02
33151;BME280;19508;42.578;23.416;2022-08-21T18:37:08;93036.25;;;22.04;79.21
33151;BME280;19508;42.578;23.416;2022-08-21T18:39:34;93035.78;;;22.02;79.29
33151;BME280;19508;42.578;23.416;2022-08-21T18:42:03;93028.38;;;22.03;79.19
33151;BME280;19508;42.578;23.416;2022-08-21T18:44:30;93041.97;;;21.99;79.82
33151;BME280;19508;42.578;23.416;2022-08-21T18:47:01;93027.59;;;21.90;79.74
33151;BME280;19508;42.578;23.416;2022-08-21T18:49:28;93031.34;;;21.85;79.58
33151;BME280;19508;42.578;23.416;2022-08-21T18:51:54;93034.22;;;21.89;79.46
33151;BME280;19508;42.578;23.416;2022-08-21T18:54:19;93030.69;;;21.88;79.46
33151;BME280;19508;42.578;23.416;2022-08-21T18:56:45;93041.50;;;21.85;79.30
33151;BME280;19508;42.578;23.416;2022-08-21T18:59:13;93049.97;;;21.80;79.99
33151;BME280;19508;42.578;23.416;2022-08-21T19:01:40;93047.09;;;21.76;80.00
33151;BME280;19508;42.578;23.416;2022-08-21T19:04:07;93037.19;;;21.72;79.81
33151;BME280;19508;42.578;23.416;2022-08-21T19:06:36;93038.09;;;21.63;80.53
33151;BME280;19508;42.578;23.416;2022-08-21T19:09:09;93050.28;;;21.54;81.46
33151;BME280;19508;42.578;23.416;2022-08-21T19:11:39;93049.56;;;21.32;82.88
33151;BME280;19508;42.578;23.416;2022-08-21T19:14:12;93052.34;;;21.57;82.11
33151;BME280;19508;42.578;23.416;2022-08-21T19:16:40;93063.16;;;21.41;82.87
33151;BME280;19508;42.578;23.416;2022-08-21T19:19:06;93064.03;;;21.33;83.14
33151;BME280;19508;42.578;23.416;2022-08-21T19:21:34;93062.47;;;21.44;82.70
33151;BME280;19508;42.578;23.416;2022-08-21T19:24:00;93062.25;;;21.49;82.29
33151;BME280;19508;42.578;23.416;2022-08-21T19:26:30;93060.41;;;21.41;82.39
33151;BME280;19508;42.578;23.416;2022-08-21T19:29:00;93056.06;;;21.40;82.53
33151;BME280;19508;42.578;23.416;2022-08-21T19:31:37;93066.13;;;21.48;82.61
33151;BME280;19508;42.578;23.416;2022-08-21T19:34:15;93059.97;;;21.51;82.16
33151;BME280;19508;42.578;23.416;2022-08-21T19:36:42;93063.41;;;21.48;82.53
33151;BME280;19508;42.578;23.416;2022-08-21T19:39:09;93072.53;;;21.52;82.13
33151;BME280;19508;42.578;23.416;2022-08-21T19:41:39;93077.78;;;21.57;82.11
33151;BME280;19508;42.578;23.416;2022-08-21T19:44:08;93080.28;;;21.50;82.54
33151;BME280;19508;42.578;23.416;2022-08-21T19:46:38;93081.22;;;21.54;82.54
33151;BME280;19508;42.578;23.416;2022-08-21T19:49:05;93083.72;;;21.59;81.52
33151;BME280;19508;42.578;23.416;2022-08-21T19:51:33;93081.66;;;21.56;81.70
33151;BME280;19508;42.578;23.416;2022-08-21T19:53:59;93083.72;;;21.59;82.07
33151;BME280;19508;42.578;23.416;2022-08-21T19:56:28;93094.81;;;21.63;82.73
33151;BME280;19508;42.578;23.416;2022-08-21T19:58:55;93088.53;;;21.62;82.96
33151;BME280;19508;42.578;23.416;2022-08-21T20:01:22;93089.44;;;21.66;82.48
33151;BME280;19508;42.578;23.416;2022-08-21T20:03:50;93082.63;;;21.73;82.74
33151;BME280;19508;42.578;23.416;2022-08-21T20:06:17;93094.16;;;21.90;81.50
33151;BME280;19508;42.578;23.416;2022-08-21T20:08:44;93091.19;;;21.95;80.81
33151;BME280;19508;42.578;23.416;2022-08-21T20:11:11;93085.59;;;21.92;80.99
33151;BME280;19508;42.578;23.416;2022-08-21T20:13:37;93084.91;;;21.95;81.00
33151;BME280;19508;42.578;23.416;2022-08-21T20:16:07;93083.31;;;21.94;80.91
33151;BME280;19508;42.578;23.416;2022-08-21T20:18:34;93072.00;;;21.83;81.62
33151;BME280;19508;42.578;23.416;2022-08-21T20:21:00;93074.63;;;21.92;81.33
33151;BME280;19508;42.578;23.416;2022-08-21T20:23:26;93070.53;;;21.98;80.60
33151;BME280;19508;42.578;23.416;2022-08-21T20:25:52;93071.44;;;21.90;80.62
33151;BME280;19508;42.578;23.416;2022-08-21T20:28:18;93079.41;;;21.95;80.90
33151;BME280;19508;42.578;23.416;2022-08-21T20:30:44;93073.25;;;21.86;81.14
33151;BME280;19508;42.578;23.416;2022-08-21T20:33:10;93066.63;;;21.87;81.05
33151;BME280;19508;42.578;23.416;2022-08-21T20:35:35;93063.44;;;21.85;81.18
33151;BME280;19508;42.578;23.416;2022-08-21T20:38:02;93084.91;;;21.95;81.07
33151;BME280;19508;42.578;23.416;2022-08-21T20:40:28;93086.38;;;21.92;81.19
33151;BME280;19508;42.578;23.416;2022-08-21T20:42:57;93087.88;;;21.90;81.12
33151;BME280;19508;42.578;23.416;2022-08-21T20:45:30;93081.25;;;21.91;80.35
33151;BME280;19508;42.578;23.416;2022-08-21T20:51:29;93071.91;;;21.80;80.13
33151;BME280;19508;42.578;23.416;2022-08-21T20:54:18;93074.16;;;21.78;79.87
33151;BME280;19508;42.578;23.416;2022-08-21T20:56:48;93074.38;;;21.60;80.74
33151;BME280;19508;42.578;23.416;2022-08-21T21:05:04;93071.16;;;21.58;79.67
33151;BME280;19508;42.578;23.416;2022-08-21T21:10:32;93081.63;;;21.44;80.41
33151;BME280;19508;42.578;23.416;2022-08-21T21:13:28;93073.41;;;21.32;80.87
33151;BME280;19508;42.578;23.416;2022-08-21T21:16:10;93081.16;;;21.30;81.23
33151;BME280;19508;42.578;23.416;2022-08-21T21:18:44;93074.25;;;21.24;81.20
33151;BME280;19508;42.578;23.416;2022-08-21T21:21:28;93069.91;;;21.23;81.46